Charleston, SC (29401)

1:23 PM EDT on May 29, 2017 (GMT -0400)
Downtown Charleston | | Change Station

Elev 23 ft 32.79 °N, 79.95 °W | Updated 3 seconds ago

Clear
Clear
95.2 °F
Feels Like 99 °F
N
2.9
Wind Variable Wind from WNW
Gusts 4.9 mph

Today
High -- | Low -- °F
--% Chance of Precip.
Yesterday
High -- | Low -- °F
Precip. -- in
Pressure 30.00 in
Visibility 10.0 miles
Clouds Few 3700 ft
Scattered Clouds 4800 ft
Mostly Cloudy 10000 ft
Heat Index 99 °F
Dew Point 66 °F
Humidity 39%
Rainfall 0.00 in
Snow Depth Not available.
6:13 AM 8:21 PM
Waxing Crescent, 21% visible
METAR KJZI 291715Z AUTO 19007KT 10SM FEW037 SCT048 BKN100 32/23 A3000 RMK AO2
Pressure 30.00 in
Visibility 10.0 miles
Clouds Few 3700 ft
Scattered Clouds 4800 ft
Mostly Cloudy 10000 ft
Heat Index 99 °F
Dew Point 66 °F
Humidity 39%
Rainfall 0.00 in
Snow Depth Not available.
6:13 AM 8:21 PM
Waxing Crescent, 21% visible
METAR KJZI 291715Z AUTO 19007KT 10SM FEW037 SCT048 BKN100 32/23 A3000 RMK AO2

Get Severe Weather Alerts

Thanks for signing up!

Be on the lookout for a verification email in your inbox.

You'll start receiving the daily forecast at 6 AM.

×

10-Day Weather Forecast

Almanac

Astronomy

May. 29, 2017 Rise Set
Actual Time
Civil Twilight
Nautical Twilight
Astronomical Twilight
Moon
Length of Visible Light
Length of Day
Tomorrow will be .
, % of the Moon is Illuminated

Today's Extremes

State Highs State Lows

Community

WunderPhotos

Category 6

Welcome to Category 6. This is the collective home for Weather Underground's featured writeups by Dr. Jeff Masters (right), Bob Henson (left), Chris Burt, and other regular contributors.

Nearby

Air Quality

  Air Quality AQ Index Pollutant
Not available.

Snow Depth

Station Depth Elevation

Earthquake Activity

City Distance Mag. Time & Date
Minimum magnitude displayed is 2.5.

Coastal Water Temperatures

Place Temperature

Stations

Nearby Weather Stations

Station Location Temp. Windchill Dew Point Humidity Wind Precip. Elev Updated Type
                   

Watches & Warnings

There are currently no watches in effect.